sensor_id;sensor_type;location;lat;lon;timestamp;P1;durP1;ratioP1;P2;durP2;ratioP2
11943;SDS011;6031;50.220;10.122;2023-02-28T00:00:28;5.60;;;3.93;;
11943;SDS011;6031;50.220;10.122;2023-02-28T00:02:54;6.27;;;4.53;;
11943;SDS011;6031;50.220;10.122;2023-02-28T00:05:21;5.10;;;3.93;;
11943;SDS011;6031;50.220;10.122;2023-02-28T00:07:48;4.20;;;3.70;;
11943;SDS011;6031;50.220;10.122;2023-02-28T00:10:21;4.60;;;3.43;;
11943;SDS011;6031;50.220;10.122;2023-02-28T00:12:52;3.60;;;3.30;;
11943;SDS011;6031;50.220;10.122;2023-02-28T00:15:21;3.20;;;2.97;;
11943;SDS011;6031;50.220;10.122;2023-02-28T00:17:48;4.10;;;2.60;;
11943;SDS011;6031;50.220;10.122;2023-02-28T00:20:13;4.30;;;3.27;;
11943;SDS011;6031;50.220;10.122;2023-02-28T00:22:41;3.53;;;3.17;;
11943;SDS011;6031;50.220;10.122;2023-02-28T00:25:09;6.23;;;3.87;;
11943;SDS011;6031;50.220;10.122;2023-02-28T00:27:36;3.73;;;3.30;;
11943;SDS011;6031;50.220;10.122;2023-02-28T00:30:03;4.30;;;2.93;;
11943;SDS011;6031;50.220;10.122;2023-02-28T00:32:30;3.97;;;3.60;;
11943;SDS011;6031;50.220;10.122;2023-02-28T00:34:55;5.30;;;2.90;;
11943;SDS011;6031;50.220;10.122;2023-02-28T00:37:21;4.27;;;3.87;;
11943;SDS011;6031;50.220;10.122;2023-02-28T00:39:47;4.17;;;3.80;;
11943;SDS011;6031;50.220;10.122;2023-02-28T00:42:12;3.57;;;3.20;;
11943;SDS011;6031;50.220;10.122;2023-02-28T00:44:38;4.10;;;3.40;;
11943;SDS011;6031;50.220;10.122;2023-02-28T00:47:03;3.67;;;3.30;;
11943;SDS011;6031;50.220;10.122;2023-02-28T00:49:29;3.80;;;3.47;;
11943;SDS011;6031;50.220;10.122;2023-02-28T00:51:55;5.00;;;3.37;;
11943;SDS011;6031;50.220;10.122;2023-02-28T00:54:21;3.97;;;3.67;;
11943;SDS011;6031;50.220;10.122;2023-02-28T00:56:47;2.83;;;2.63;;
11943;SDS011;6031;50.220;10.122;2023-02-28T00:59:13;3.40;;;3.10;;
11943;SDS011;6031;50.220;10.122;2023-02-28T01:01:40;3.73;;;3.43;;
11943;SDS011;6031;50.220;10.122;2023-02-28T01:04:05;4.13;;;3.67;;
11943;SDS011;6031;50.220;10.122;2023-02-28T01:06:31;3.77;;;3.47;;
11943;SDS011;6031;50.220;10.122;2023-02-28T01:08:57;3.10;;;2.90;;
11943;SDS011;6031;50.220;10.122;2023-02-28T01:11:24;3.10;;;2.80;;
11943;SDS011;6031;50.220;10.122;2023-02-28T01:13:49;3.43;;;3.13;;
11943;SDS011;6031;50.220;10.122;2023-02-28T01:16:15;4.10;;;3.60;;
11943;SDS011;6031;50.220;10.122;2023-02-28T01:18:41;3.40;;;3.10;;
11943;SDS011;6031;50.220;10.122;2023-02-28T01:21:08;3.50;;;3.20;;
11943;SDS011;6031;50.220;10.122;2023-02-28T01:23:39;3.17;;;2.87;;
11943;SDS011;6031;50.220;10.122;2023-02-28T01:26:06;3.67;;;3.40;;
11943;SDS011;6031;50.220;10.122;2023-02-28T01:28:32;3.60;;;3.30;;
11943;SDS011;6031;50.220;10.122;2023-02-28T01:30:58;4.20;;;3.60;;
11943;SDS011;6031;50.220;10.122;2023-02-28T01:33:23;3.57;;;3.00;;
11943;SDS011;6031;50.220;10.122;2023-02-28T01:35:49;3.30;;;3.00;;
11943;SDS011;6031;50.220;10.122;2023-02-28T01:38:22;5.20;;;4.70;;
11943;SDS011;6031;50.220;10.122;2023-02-28T01:40:47;8.27;;;5.63;;
11943;SDS011;6031;50.220;10.122;2023-02-28T01:43:19;6.83;;;4.90;;
11943;SDS011;6031;50.220;10.122;2023-02-28T01:45:49;7.70;;;5.53;;
11943;SDS011;6031;50.220;10.122;2023-02-28T01:48:15;5.40;;;4.90;;
11943;SDS011;6031;50.220;10.122;2023-02-28T01:50:42;9.03;;;6.10;;
11943;SDS011;6031;50.220;10.122;2023-02-28T01:53:10;7.60;;;5.40;;
11943;SDS011;6031;50.220;10.122;2023-02-28T01:55:40;4.67;;;4.10;;
11943;SDS011;6031;50.220;10.122;2023-02-28T01:58:10;4.63;;;4.10;;
11943;SDS011;6031;50.220;10.122;2023-02-28T02:00:35;6.27;;;4.80;;
11943;SDS011;6031;50.220;10.122;2023-02-28T02:03:08;9.70;;;6.63;;
11943;SDS011;6031;50.220;10.122;2023-02-28T02:05:38;4.30;;;3.90;;
11943;SDS011;6031;50.220;10.122;2023-02-28T02:08:06;6.80;;;5.33;;
11943;SDS011;6031;50.220;10.122;2023-02-28T02:19:04;4.50;;;3.83;;
11943;SDS011;6031;50.220;10.122;2023-02-28T02:33:18;4.03;;;3.40;;
11943;SDS011;6031;50.220;10.122;2023-02-28T02:36:03;3.93;;;3.63;;
11943;SDS011;6031;50.220;10.122;2023-02-28T02:44:08;3.30;;;3.00;;
11943;SDS011;6031;50.220;10.122;2023-02-28T02:46:39;4.63;;;3.50;;
11943;SDS011;6031;50.220;10.122;2023-02-28T02:49:09;3.97;;;3.17;;
11943;SDS011;6031;50.220;10.122;2023-02-28T02:51:39;3.43;;;3.20;;
11943;SDS011;6031;50.220;10.122;2023-02-28T02:54:26;4.30;;;3.80;;
11943;SDS011;6031;50.220;10.122;2023-02-28T02:56:54;5.37;;;3.87;;
11943;SDS011;6031;50.220;10.122;2023-02-28T02:59:23;4.10;;;3.20;;
11943;SDS011;6031;50.220;10.122;2023-02-28T03:01:55;3.67;;;3.37;;
11943;SDS011;6031;50.220;10.122;2023-02-28T03:04:23;2.93;;;2.73;;
11943;SDS011;6031;50.220;10.122;2023-02-28T03:06:52;2.87;;;2.60;;
11943;SDS011;6031;50.220;10.122;2023-02-28T03:09:20;7.30;;;3.97;;
11943;SDS011;6031;50.220;10.122;2023-02-28T03:11:46;4.23;;;3.83;;
11943;SDS011;6031;50.220;10.122;2023-02-28T03:14:22;4.37;;;3.50;;
11943;SDS011;6031;50.220;10.122;2023-02-28T03:17:00;4.17;;;3.27;;
11943;SDS011;6031;50.220;10.122;2023-02-28T03:19:31;3.93;;;3.30;;
11943;SDS011;6031;50.220;10.122;2023-02-28T03:22:08;11.07;;;8.80;;
11943;SDS011;6031;50.220;10.122;2023-02-28T03:25:06;5.60;;;4.57;;
11943;SDS011;6031;50.220;10.122;2023-02-28T03:28:29;4.87;;;4.13;;
11943;SDS011;6031;50.220;10.122;2023-02-28T03:36:20;5.13;;;4.07;;
11943;SDS011;6031;50.220;10.122;2023-02-28T03:38:55;8.30;;;5.67;;
11943;SDS011;6031;50.220;10.122;2023-02-28T03:41:30;6.20;;;4.90;;
11943;SDS011;6031;50.220;10.122;2023-02-28T03:44:17;8.70;;;6.17;;
11943;SDS011;6031;50.220;10.122;2023-02-28T03:46:53;8.60;;;5.10;;
11943;SDS011;6031;50.220;10.122;2023-02-28T03:49:27;7.97;;;4.47;;
11943;SDS011;6031;50.220;10.122;2023-02-28T03:51:59;4.83;;;4.37;;
11943;SDS011;6031;50.220;10.122;2023-02-28T03:54:30;4.87;;;3.93;;
11943;SDS011;6031;50.220;10.122;2023-02-28T03:57:03;4.53;;;4.13;;
11943;SDS011;6031;50.220;10.122;2023-02-28T03:59:49;6.80;;;4.50;;
11943;SDS011;6031;50.220;10.122;2023-02-28T04:02:21;10.23;;;4.63;;
11943;SDS011;6031;50.220;10.122;2023-02-28T04:04:46;5.00;;;4.50;;
11943;SDS011;6031;50.220;10.122;2023-02-28T04:07:13;6.27;;;4.73;;
11943;SDS011;6031;50.220;10.122;2023-02-28T04:09:40;5.97;;;5.10;;
11943;SDS011;6031;50.220;10.122;2023-02-28T04:12:06;4.63;;;3.63;;
11943;SDS011;6031;50.220;10.122;2023-02-28T04:14:32;5.50;;;5.00;;
11943;SDS011;6031;50.220;10.122;2023-02-28T04:16:57;8.40;;;4.20;;
11943;SDS011;6031;50.220;10.122;2023-02-28T04:19:23;4.47;;;4.07;;
11943;SDS011;6031;50.220;10.122;2023-02-28T04:21:49;7.00;;;4.50;;
11943;SDS011;6031;50.220;10.122;2023-02-28T04:24:17;4.40;;;4.00;;
11943;SDS011;6031;50.220;10.122;2023-02-28T04:26:48;4.17;;;3.60;;
11943;SDS011;6031;50.220;10.122;2023-02-28T04:29:23;5.60;;;3.67;;
11943;SDS011;6031;50.220;10.122;2023-02-28T04:31:51;5.10;;;4.13;;
11943;SDS011;6031;50.220;10.122;2023-02-28T04:34:23;3.83;;;3.43;;
11943;SDS011;6031;50.220;10.122;2023-02-28T04:36:49;4.53;;;3.90;;
11943;SDS011;6031;50.220;10.122;2023-02-28T04:39:15;4.37;;;3.90;;
11943;SDS011;6031;50.220;10.122;2023-02-28T04:41:43;3.80;;;2.60;;
11943;SDS011;6031;50.220;10.122;2023-02-28T04:44:09;5.67;;;4.07;;
11943;SDS011;6031;50.220;10.122;2023-02-28T04:46:34;4.57;;;4.17;;
11943;SDS011;6031;50.220;10.122;2023-02-28T04:49:00;4.60;;;4.10;;
11943;SDS011;6031;50.220;10.122;2023-02-28T04:51:25;8.50;;;5.07;;
11943;SDS011;6031;50.220;10.122;2023-02-28T04:53:51;5.07;;;4.57;;
11943;SDS011;6031;50.220;10.122;2023-02-28T04:56:17;5.83;;;4.93;;
11943;SDS011;6031;50.220;10.122;2023-02-28T04:58:43;10.27;;;7.10;;
11943;SDS011;6031;50.220;10.122;2023-02-28T05:03:54;11.67;;;6.70;;
11943;SDS011;6031;50.220;10.122;2023-02-28T05:06:22;17.03;;;6.83;;
11943;SDS011;6031;50.220;10.122;2023-02-28T05:08:49;13.97;;;7.43;;
11943;SDS011;6031;50.220;10.122;2023-02-28T05:11:25;9.37;;;7.03;;
11943;SDS011;6031;50.220;10.122;2023-02-28T05:13:51;11.37;;;6.13;;
11943;SDS011;6031;50.220;10.122;2023-02-28T05:16:18;7.50;;;5.60;;
11943;SDS011;6031;50.220;10.122;2023-02-28T05:18:44;9.60;;;5.90;;
11943;SDS011;6031;50.220;10.122;2023-02-28T05:21:27;13.17;;;6.50;;
11943;SDS011;6031;50.220;10.122;2023-02-28T05:24:00;12.37;;;6.47;;
11943;SDS011;6031;50.220;10.122;2023-02-28T05:26:28;11.57;;;6.47;;
11943;SDS011;6031;50.220;10.122;2023-02-28T05:28:54;11.90;;;7.20;;
11943;SDS011;6031;50.220;10.122;2023-02-28T05:31:20;10.57;;;6.23;;
11943;SDS011;6031;50.220;10.122;2023-02-28T05:33:46;11.63;;;6.03;;
11943;SDS011;6031;50.220;10.122;2023-02-28T05:36:12;10.43;;;4.70;;
11943;SDS011;6031;50.220;10.122;2023-02-28T05:38:38;6.57;;;5.03;;
11943;SDS011;6031;50.220;10.122;2023-02-28T05:41:07;7.03;;;5.33;;
11943;SDS011;6031;50.220;10.122;2023-02-28T05:43:34;5.27;;;4.07;;
11943;SDS011;6031;50.220;10.122;2023-02-28T05:46:04;5.57;;;3.97;;
11943;SDS011;6031;50.220;10.122;2023-02-28T05:48:31;6.10;;;4.70;;
11943;SDS011;6031;50.220;10.122;2023-02-28T05:50:58;4.73;;;3.77;;
11943;SDS011;6031;50.220;10.122;2023-02-28T05:53:23;4.17;;;3.77;;
11943;SDS011;6031;50.220;10.122;2023-02-28T05:55:49;7.17;;;5.20;;
11943;SDS011;6031;50.220;10.122;2023-02-28T05:58:14;7.70;;;5.03;;
11943;SDS011;6031;50.220;10.122;2023-02-28T06:00:40;4.87;;;4.37;;
11943;SDS011;6031;50.220;10.122;2023-02-28T06:03:05;4.43;;;3.80;;
11943;SDS011;6031;50.220;10.122;2023-02-28T06:05:31;4.60;;;4.10;;
11943;SDS011;6031;50.220;10.122;2023-02-28T06:07:57;8.67;;;4.60;;
11943;SDS011;6031;50.220;10.122;2023-02-28T06:10:22;5.10;;;4.30;;
11943;SDS011;6031;50.220;10.122;2023-02-28T06:12:48;5.00;;;3.73;;
11943;SDS011;6031;50.220;10.122;2023-02-28T06:15:14;6.53;;;4.07;;
11943;SDS011;6031;50.220;10.122;2023-02-28T06:17:41;6.13;;;3.43;;
11943;SDS011;6031;50.220;10.122;2023-02-28T06:20:07;6.27;;;3.60;;
11943;SDS011;6031;50.220;10.122;2023-02-28T06:22:34;4.10;;;3.53;;
11943;SDS011;6031;50.220;10.122;2023-02-28T06:25:00;6.70;;;4.70;;
11943;SDS011;6031;50.220;10.122;2023-02-28T06:27:26;5.27;;;4.43;;
11943;SDS011;6031;50.220;10.122;2023-02-28T06:29:53;4.27;;;3.93;;
11943;SDS011;6031;50.220;10.122;2023-02-28T06:32:20;4.43;;;4.03;;
11943;SDS011;6031;50.220;10.122;2023-02-28T06:34:46;4.10;;;3.57;;
11943;SDS011;6031;50.220;10.122;2023-02-28T06:37:12;5.47;;;4.63;;
11943;SDS011;6031;50.220;10.122;2023-02-28T06:39:37;6.07;;;4.83;;
11943;SDS011;6031;50.220;10.122;2023-02-28T06:42:04;6.13;;;4.77;;
11943;SDS011;6031;50.220;10.122;2023-02-28T06:44:29;5.20;;;4.53;;
11943;SDS011;6031;50.220;10.122;2023-02-28T06:47:00;8.67;;;4.73;;
11943;SDS011;6031;50.220;10.122;2023-02-28T06:49:28;6.50;;;4.87;;
11943;SDS011;6031;50.220;10.122;2023-02-28T06:51:54;5.80;;;4.47;;
11943;SDS011;6031;50.220;10.122;2023-02-28T06:54:19;6.10;;;4.50;;
11943;SDS011;6031;50.220;10.122;2023-02-28T06:56:45;4.33;;;3.93;;
11943;SDS011;6031;50.220;10.122;2023-02-28T06:59:11;4.67;;;3.90;;
11943;SDS011;6031;50.220;10.122;2023-02-28T07:01:37;7.00;;;4.87;;
11943;SDS011;6031;50.220;10.122;2023-02-28T07:04:03;7.50;;;5.73;;
11943;SDS011;6031;50.220;10.122;2023-02-28T07:06:30;5.13;;;4.40;;
11943;SDS011;6031;50.220;10.122;2023-02-28T07:08:56;7.90;;;5.50;;
11943;SDS011;6031;50.220;10.122;2023-02-28T07:11:22;4.67;;;4.17;;
11943;SDS011;6031;50.220;10.122;2023-02-28T07:13:50;5.67;;;4.40;;
11943;SDS011;6031;50.220;10.122;2023-02-28T07:16:16;10.03;;;6.03;;
11943;SDS011;6031;50.220;10.122;2023-02-28T07:18:42;8.17;;;5.50;;
11943;SDS011;6031;50.220;10.122;2023-02-28T07:21:09;7.70;;;6.23;;
11943;SDS011;6031;50.220;10.122;2023-02-28T07:23:35;7.40;;;5.37;;
11943;SDS011;6031;50.220;10.122;2023-02-28T07:26:02;5.70;;;4.20;;
11943;SDS011;6031;50.220;10.122;2023-02-28T07:28:28;8.17;;;5.20;;
11943;SDS011;6031;50.220;10.122;2023-02-28T07:30:54;7.20;;;4.63;;
11943;SDS011;6031;50.220;10.122;2023-02-28T07:33:19;6.63;;;4.23;;
11943;SDS011;6031;50.220;10.122;2023-02-28T07:35:45;9.47;;;6.00;;
11943;SDS011;6031;50.220;10.122;2023-02-28T07:38:11;11.80;;;6.57;;
11943;SDS011;6031;50.220;10.122;2023-02-28T07:40:38;7.57;;;5.67;;
11943;SDS011;6031;50.220;10.122;2023-02-28T07:43:04;6.40;;;5.80;;
11943;SDS011;6031;50.220;10.122;2023-02-28T07:45:29;10.70;;;5.33;;
11943;SDS011;6031;50.220;10.122;2023-02-28T07:47:56;4.73;;;4.33;;
11943;SDS011;6031;50.220;10.122;2023-02-28T07:50:22;5.20;;;4.70;;
11943;SDS011;6031;50.220;10.122;2023-02-28T07:52:48;6.33;;;5.17;;
11943;SDS011;6031;50.220;10.122;2023-02-28T07:55:13;5.53;;;5.03;;
11943;SDS011;6031;50.220;10.122;2023-02-28T07:57:40;6.03;;;4.57;;
11943;SDS011;6031;50.220;10.122;2023-02-28T08:00:07;6.40;;;4.70;;
11943;SDS011;6031;50.220;10.122;2023-02-28T08:02:34;4.87;;;4.30;;
11943;SDS011;6031;50.220;10.122;2023-02-28T08:05:00;6.00;;;5.40;;
11943;SDS011;6031;50.220;10.122;2023-02-28T08:07:26;7.60;;;6.00;;
11943;SDS011;6031;50.220;10.122;2023-02-28T08:09:52;7.90;;;5.80;;
11943;SDS011;6031;50.220;10.122;2023-02-28T08:12:17;12.30;;;5.60;;
11943;SDS011;6031;50.220;10.122;2023-02-28T08:14:43;6.17;;;5.30;;
11943;SDS011;6031;50.220;10.122;2023-02-28T08:17:09;9.50;;;5.20;;
11943;SDS011;6031;50.220;10.122;2023-02-28T08:19:35;4.83;;;4.30;;
11943;SDS011;6031;50.220;10.122;2023-02-28T08:22:01;4.93;;;4.43;;
11943;SDS011;6031;50.220;10.122;2023-02-28T08:24:26;4.63;;;4.20;;
11943;SDS011;6031;50.220;10.122;2023-02-28T08:26:52;5.17;;;4.67;;
11943;SDS011;6031;50.220;10.122;2023-02-28T08:29:18;4.00;;;3.70;;
11943;SDS011;6031;50.220;10.122;2023-02-28T08:31:43;8.43;;;4.50;;
11943;SDS011;6031;50.220;10.122;2023-02-28T08:34:09;12.27;;;4.30;;
11943;SDS011;6031;50.220;10.122;2023-02-28T08:36:37;6.00;;;4.13;;
11943;SDS011;6031;50.220;10.122;2023-02-28T08:39:04;4.80;;;3.97;;
11943;SDS011;6031;50.220;10.122;2023-02-28T08:41:30;4.87;;;4.03;;
11943;SDS011;6031;50.220;10.122;2023-02-28T08:43:56;3.63;;;3.33;;
11943;SDS011;6031;50.220;10.122;2023-02-28T08:46:22;8.43;;;4.80;;
11943;SDS011;6031;50.220;10.122;2023-02-28T08:48:51;4.07;;;3.40;;
11943;SDS011;6031;50.220;10.122;2023-02-28T08:51:17;10.57;;;4.80;;
11943;SDS011;6031;50.220;10.122;2023-02-28T08:53:46;7.77;;;4.93;;
11943;SDS011;6031;50.220;10.122;2023-02-28T08:56:14;4.27;;;3.87;;
11943;SDS011;6031;50.220;10.122;2023-02-28T08:58:41;3.70;;;3.40;;
11943;SDS011;6031;50.220;10.122;2023-02-28T09:01:08;5.67;;;4.23;;
11943;SDS011;6031;50.220;10.122;2023-02-28T09:03:35;5.73;;;4.23;;
11943;SDS011;6031;50.220;10.122;2023-02-28T09:06:01;8.30;;;4.37;;
11943;SDS011;6031;50.220;10.122;2023-02-28T09:08:28;6.13;;;4.57;;
11943;SDS011;6031;50.220;10.122;2023-02-28T09:10:55;7.07;;;3.77;;
11943;SDS011;6031;50.220;10.122;2023-02-28T09:13:22;5.97;;;4.40;;
11943;SDS011;6031;50.220;10.122;2023-02-28T09:15:48;5.77;;;4.27;;
11943;SDS011;6031;50.220;10.122;2023-02-28T09:18:14;18.03;;;5.33;;
11943;SDS011;6031;50.220;10.122;2023-02-28T09:20:40;14.57;;;5.63;;
11943;SDS011;6031;50.220;10.122;2023-02-28T09:23:07;5.10;;;3.90;;
11943;SDS011;6031;50.220;10.122;2023-02-28T09:25:34;9.20;;;4.23;;
11943;SDS011;6031;50.220;10.122;2023-02-28T09:28:00;5.57;;;4.57;;
11943;SDS011;6031;50.220;10.122;2023-02-28T09:30:25;4.73;;;3.73;;
11943;SDS011;6031;50.220;10.122;2023-02-28T09:32:51;6.50;;;4.20;;
11943;SDS011;6031;50.220;10.122;2023-02-28T09:35:18;7.33;;;4.77;;
11943;SDS011;6031;50.220;10.122;2023-02-28T09:37:46;3.77;;;3.47;;
11943;SDS011;6031;50.220;10.122;2023-02-28T09:40:12;5.43;;;4.00;;
11943;SDS011;6031;50.220;10.122;2023-02-28T09:42:39;4.30;;;3.90;;
11943;SDS011;6031;50.220;10.122;2023-02-28T09:45:06;3.73;;;3.43;;
11943;SDS011;6031;50.220;10.122;2023-02-28T09:47:46;11.40;;;4.77;;
11943;SDS011;6031;50.220;10.122;2023-02-28T09:50:22;4.23;;;3.83;;
11943;SDS011;6031;50.220;10.122;2023-02-28T09:53:04;7.10;;;4.53;;
11943;SDS011;6031;50.220;10.122;2023-02-28T09:55:48;4.43;;;4.03;;
11943;SDS011;6031;50.220;10.122;2023-02-28T10:00:56;4.37;;;3.37;;
11943;SDS011;6031;50.220;10.122;2023-02-28T10:03:32;4.67;;;4.27;;
11943;SDS011;6031;50.220;10.122;2023-02-28T10:08:53;4.70;;;4.00;;
11943;SDS011;6031;50.220;10.122;2023-02-28T10:11:21;5.17;;;4.27;;
11943;SDS011;6031;50.220;10.122;2023-02-28T10:13:52;3.53;;;3.27;;
11943;SDS011;6031;50.220;10.122;2023-02-28T10:18:57;3.37;;;3.07;;
11943;SDS011;6031;50.220;10.122;2023-02-28T10:24:46;4.03;;;3.00;;
11943;SDS011;6031;50.220;10.122;2023-02-28T10:27:19;4.53;;;4.13;;
11943;SDS011;6031;50.220;10.122;2023-02-28T10:29:47;5.33;;;4.07;;
11943;SDS011;6031;50.220;10.122;2023-02-28T10:32:19;4.67;;;3.90;;
11943;SDS011;6031;50.220;10.122;2023-02-28T10:34:51;4.87;;;4.10;;
11943;SDS011;6031;50.220;10.122;2023-02-28T10:37:22;5.63;;;4.90;;
11943;SDS011;6031;50.220;10.122;2023-02-28T10:39:48;5.37;;;4.50;;
11943;SDS011;6031;50.220;10.122;2023-02-28T10:42:21;7.23;;;4.90;;
11943;SDS011;6031;50.220;10.122;2023-02-28T10:45:04;5.80;;;4.30;;
11943;SDS011;6031;50.220;10.122;2023-02-28T10:47:34;5.23;;;4.60;;
11943;SDS011;6031;50.220;10.122;2023-02-28T10:50:28;6.50;;;5.10;;
11943;SDS011;6031;50.220;10.122;2023-02-28T10:52:54;7.47;;;4.63;;
11943;SDS011;6031;50.220;10.122;2023-02-28T10:55:29;6.57;;;4.27;;
11943;SDS011;6031;50.220;10.122;2023-02-28T10:57:56;7.13;;;4.77;;
11943;SDS011;6031;50.220;10.122;2023-02-28T11:00:23;7.50;;;3.73;;
11943;SDS011;6031;50.220;10.122;2023-02-28T11:02:53;5.43;;;4.07;;
11943;SDS011;6031;50.220;10.122;2023-02-28T11:07:53;5.20;;;4.70;;
11943;SDS011;6031;50.220;10.122;2023-02-28T11:10:30;3.50;;;3.20;;
11943;SDS011;6031;50.220;10.122;2023-02-28T11:12:59;7.30;;;4.23;;
11943;SDS011;6031;50.220;10.122;2023-02-28T11:15:30;4.10;;;3.50;;
11943;SDS011;6031;50.220;10.122;2023-02-28T11:18:02;4.47;;;3.90;;
11943;SDS011;6031;50.220;10.122;2023-02-28T11:20:36;5.17;;;3.50;;
11943;SDS011;6031;50.220;10.122;2023-02-28T11:23:03;5.20;;;4.07;;
11943;SDS011;6031;50.220;10.122;2023-02-28T11:25:30;7.47;;;5.37;;
11943;SDS011;6031;50.220;10.122;2023-02-28T11:27:59;5.90;;;4.57;;
11943;SDS011;6031;50.220;10.122;2023-02-28T11:30:33;10.77;;;6.83;;
11943;SDS011;6031;50.220;10.122;2023-02-28T11:33:18;5.63;;;4.03;;
11943;SDS011;6031;50.220;10.122;2023-02-28T11:35:53;6.47;;;3.63;;
11943;SDS011;6031;50.220;10.122;2023-02-28T11:38:25;5.13;;;4.63;;
11943;SDS011;6031;50.220;10.122;2023-02-28T11:45:57;4.67;;;4.07;;
11943;SDS011;6031;50.220;10.122;2023-02-28T11:51:21;5.77;;;4.50;;
11943;SDS011;6031;50.220;10.122;2023-02-28T11:54:02;5.10;;;4.60;;
11943;SDS011;6031;50.220;10.122;2023-02-28T11:59:48;5.87;;;4.53;;
11943;SDS011;6031;50.220;10.122;2023-02-28T12:05:44;5.70;;;3.83;;
11943;SDS011;6031;50.220;10.122;2023-02-28T12:13:38;3.93;;;3.50;;
11943;SDS011;6031;50.220;10.122;2023-02-28T12:24:39;5.20;;;3.90;;
11943;SDS011;6031;50.220;10.122;2023-02-28T12:27:17;4.30;;;3.80;;
11943;SDS011;6031;50.220;10.122;2023-02-28T12:29:49;4.33;;;3.53;;
11943;SDS011;6031;50.220;10.122;2023-02-28T12:32:26;4.90;;;4.23;;
11943;SDS011;6031;50.220;10.122;2023-02-28T12:35:11;11.17;;;7.70;;
11943;SDS011;6031;50.220;10.122;2023-02-28T12:38:01;7.87;;;6.20;;
11943;SDS011;6031;50.220;10.122;2023-02-28T12:40:41;4.97;;;4.03;;
11943;SDS011;6031;50.220;10.122;2023-02-28T12:43:07;5.17;;;4.60;;
11943;SDS011;6031;50.220;10.122;2023-02-28T12:45:50;5.40;;;3.90;;
11943;SDS011;6031;50.220;10.122;2023-02-28T12:48:21;3.93;;;3.63;;
11943;SDS011;6031;50.220;10.122;2023-02-28T12:50:52;4.37;;;3.97;;
11943;SDS011;6031;50.220;10.122;2023-02-28T12:53:33;5.07;;;3.73;;
11943;SDS011;6031;50.220;10.122;2023-02-28T12:58:45;5.27;;;3.73;;
11943;SDS011;6031;50.220;10.122;2023-02-28T13:09:50;5.10;;;4.13;;
11943;SDS011;6031;50.220;10.122;2023-02-28T13:12:21;4.97;;;4.20;;
11943;SDS011;6031;50.220;10.122;2023-02-28T13:14:48;5.03;;;4.53;;
11943;SDS011;6031;50.220;10.122;2023-02-28T13:17:19;4.67;;;4.00;;
11943;SDS011;6031;50.220;10.122;2023-02-28T13:22:18;5.20;;;4.30;;
11943;SDS011;6031;50.220;10.122;2023-02-28T13:24:45;5.47;;;3.87;;
11943;SDS011;6031;50.220;10.122;2023-02-28T13:27:23;5.13;;;4.63;;
11943;SDS011;6031;50.220;10.122;2023-02-28T13:30:00;7.33;;;6.00;;
11943;SDS011;6031;50.220;10.122;2023-02-28T13:32:32;4.67;;;4.10;;
11943;SDS011;6031;50.220;10.122;2023-02-28T13:37:34;6.50;;;4.90;;
11943;SDS011;6031;50.220;10.122;2023-02-28T13:42:35;7.87;;;4.23;;
11943;SDS011;6031;50.220;10.122;2023-02-28T13:47:41;7.07;;;5.43;;
11943;SDS011;6031;50.220;10.122;2023-02-28T13:52:48;4.40;;;3.80;;
11943;SDS011;6031;50.220;10.122;2023-02-28T13:55:56;8.70;;;5.37;;
11943;SDS011;6031;50.220;10.122;2023-02-28T13:58:53;5.67;;;4.60;;
11943;SDS011;6031;50.220;10.122;2023-02-28T14:06:51;7.03;;;5.17;;
11943;SDS011;6031;50.220;10.122;2023-02-28T14:09:21;5.63;;;4.87;;
11943;SDS011;6031;50.220;10.122;2023-02-28T14:11:50;4.97;;;4.47;;
11943;SDS011;6031;50.220;10.122;2023-02-28T14:17:04;6.00;;;4.37;;
11943;SDS011;6031;50.220;10.122;2023-02-28T14:19:34;6.70;;;4.23;;
11943;SDS011;6031;50.220;10.122;2023-02-28T14:33:00;4.13;;;3.63;;
11943;SDS011;6031;50.220;10.122;2023-02-28T14:38:46;5.47;;;4.73;;
11943;SDS011;6031;50.220;10.122;2023-02-28T14:41:20;4.97;;;4.33;;
11943;SDS011;6031;50.220;10.122;2023-02-28T14:43:55;5.77;;;5.03;;
11943;SDS011;6031;50.220;10.122;2023-02-28T14:46:23;5.67;;;4.83;;
11943;SDS011;6031;50.220;10.122;2023-02-28T14:48:53;5.27;;;4.67;;
11943;SDS011;6031;50.220;10.122;2023-02-28T14:51:20;5.43;;;4.93;;
11943;SDS011;6031;50.220;10.122;2023-02-28T14:53:48;7.03;;;4.60;;
11943;SDS011;6031;50.220;10.122;2023-02-28T14:56:27;5.53;;;4.90;;
11943;SDS011;6031;50.220;10.122;2023-02-28T14:58:57;4.60;;;4.13;;
11943;SDS011;6031;50.220;10.122;2023-02-28T15:01:24;4.77;;;4.30;;
11943;SDS011;6031;50.220;10.122;2023-02-28T15:03:58;16.40;;;5.37;;
11943;SDS011;6031;50.220;10.122;2023-02-28T15:06:26;7.87;;;6.17;;
11943;SDS011;6031;50.220;10.122;2023-02-28T15:11:54;7.67;;;5.60;;
11943;SDS011;6031;50.220;10.122;2023-02-28T15:14:20;9.33;;;6.10;;
11943;SDS011;6031;50.220;10.122;2023-02-28T15:16:48;5.17;;;4.67;;
11943;SDS011;6031;50.220;10.122;2023-02-28T15:19:28;6.37;;;5.13;;
11943;SDS011;6031;50.220;10.122;2023-02-28T15:22:01;5.27;;;4.70;;
11943;SDS011;6031;50.220;10.122;2023-02-28T15:24:40;6.27;;;4.90;;
11943;SDS011;6031;50.220;10.122;2023-02-28T15:27:30;6.33;;;5.57;;
11943;SDS011;6031;50.220;10.122;2023-02-28T15:29:58;7.07;;;4.73;;
11943;SDS011;6031;50.220;10.122;2023-02-28T15:32:31;8.17;;;5.10;;
11943;SDS011;6031;50.220;10.122;2023-02-28T15:35:17;6.13;;;4.40;;
11943;SDS011;6031;50.220;10.122;2023-02-28T15:37:56;4.97;;;4.10;;
11943;SDS011;6031;50.220;10.122;2023-02-28T15:40:24;4.40;;;4.00;;
11943;SDS011;6031;50.220;10.122;2023-02-28T15:42:59;6.80;;;5.73;;
11943;SDS011;6031;50.220;10.122;2023-02-28T15:45:32;10.90;;;5.80;;
11943;SDS011;6031;50.220;10.122;2023-02-28T15:48:05;6.97;;;5.50;;
11943;SDS011;6031;50.220;10.122;2023-02-28T15:50:39;6.27;;;5.10;;
11943;SDS011;6031;50.220;10.122;2023-02-28T15:53:05;7.50;;;5.33;;
11943;SDS011;6031;50.220;10.122;2023-02-28T15:55:43;8.17;;;6.17;;
11943;SDS011;6031;50.220;10.122;2023-02-28T15:58:10;10.03;;;6.90;;
11943;SDS011;6031;50.220;10.122;2023-02-28T16:00:38;7.67;;;6.60;;
11943;SDS011;6031;50.220;10.122;2023-02-28T16:03:22;5.70;;;4.90;;
11943;SDS011;6031;50.220;10.122;2023-02-28T16:06:07;5.80;;;5.03;;
11943;SDS011;6031;50.220;10.122;2023-02-28T16:08:33;8.57;;;5.73;;
11943;SDS011;6031;50.220;10.122;2023-02-28T16:10:59;6.53;;;5.50;;
11943;SDS011;6031;50.220;10.122;2023-02-28T16:13:24;9.63;;;6.33;;
11943;SDS011;6031;50.220;10.122;2023-02-28T16:15:50;9.87;;;7.37;;
11943;SDS011;6031;50.220;10.122;2023-02-28T16:18:16;9.80;;;6.00;;
11943;SDS011;6031;50.220;10.122;2023-02-28T16:20:41;6.50;;;5.57;;
11943;SDS011;6031;50.220;10.122;2023-02-28T16:23:09;6.87;;;4.63;;
11943;SDS011;6031;50.220;10.122;2023-02-28T16:25:39;6.37;;;4.37;;
11943;SDS011;6031;50.220;10.122;2023-02-28T16:28:12;5.97;;;5.13;;
11943;SDS011;6031;50.220;10.122;2023-02-28T16:30:44;7.03;;;5.40;;
11943;SDS011;6031;50.220;10.122;2023-02-28T16:33:10;5.63;;;4.83;;
11943;SDS011;6031;50.220;10.122;2023-02-28T16:35:36;7.40;;;4.83;;
11943;SDS011;6031;50.220;10.122;2023-02-28T16:38:01;5.90;;;4.27;;
11943;SDS011;6031;50.220;10.122;2023-02-28T16:40:27;6.70;;;5.40;;
11943;SDS011;6031;50.220;10.122;2023-02-28T16:42:55;6.40;;;4.57;;
11943;SDS011;6031;50.220;10.122;2023-02-28T16:45:24;6.07;;;4.67;;
11943;SDS011;6031;50.220;10.122;2023-02-28T16:47:51;7.13;;;4.60;;
11943;SDS011;6031;50.220;10.122;2023-02-28T16:50:24;6.23;;;4.93;;
11943;SDS011;6031;50.220;10.122;2023-02-28T16:52:53;5.87;;;5.23;;
11943;SDS011;6031;50.220;10.122;2023-02-28T16:55:19;7.43;;;5.93;;
11943;SDS011;6031;50.220;10.122;2023-02-28T16:57:47;9.90;;;6.27;;
11943;SDS011;6031;50.220;10.122;2023-02-28T17:00:16;8.57;;;5.40;;
11943;SDS011;6031;50.220;10.122;2023-02-28T17:02:42;9.67;;;7.37;;
11943;SDS011;6031;50.220;10.122;2023-02-28T17:05:08;6.63;;;5.47;;